Time;durP1;ratioP1;P1;durP2;ratioP2;P2;SDS_P1;SDS_P2;PMS_P1;PMS_P2;Temp;Humidity;BMP_temperature;BMP_pressure;BME280_temperature;BME280_humidity;BME280_pressure;Samples;Min_cycle;Max_cycle;Signal;HPM_P1;HPM_P2
2023/12/17 00:00:52;;;;;;;18.50;10.60;;;;;;;-3.69;100.00;101674.39;109377;1253;73932;-55
2023/12/17 00:03:19;;;;;;;16.30;9.50;;;;;;;-3.68;100.00;101670.45;109452;1253;68952;-56
2023/12/17 00:05:47;;;;;;;18.00;9.40;;;;;;;-3.64;100.00;101665.89;109353;1253;71451;-57
2023/12/17 00:08:20;;;;;;;14.90;8.00;;;;;;;-3.61;100.00;101662.91;109418;1253;59316;-54
2023/12/17 00:10:49;;;;;;;13.30;8.30;;;;;;;-3.57;100.00;101661.55;109399;1252;60122;-54
2023/12/17 00:13:17;;;;;;;14.60;8.40;;;;;;;-3.54;100.00;101656.70;109465;1253;74397;-56
2023/12/17 00:15:45;;;;;;;16.40;9.70;;;;;;;-3.51;100.00;101653.02;109389;1251;65665;-55
2023/12/17 00:18:12;;;;;;;16.10;9.20;;;;;;;-3.49;100.00;101652.44;109430;1253;72737;-55
2023/12/17 00:20:40;;;;;;;15.10;9.00;;;;;;;-3.48;100.00;101650.67;109330;1256;58654;-56
2023/12/17 00:23:08;;;;;;;14.60;8.70;;;;;;;-3.46;100.00;101653.98;109462;1253;59136;-55
2023/12/17 00:25:35;;;;;;;13.60;8.10;;;;;;;-3.42;100.00;101651.97;109349;1252;72760;-57
2023/12/17 00:28:03;;;;;;;13.70;8.80;;;;;;;-3.39;100.00;101647.81;109471;1252;66955;-55
2023/12/17 00:30:31;;;;;;;16.00;9.50;;;;;;;-3.38;100.00;101642.13;109426;1253;71428;-55
2023/12/17 00:32:58;;;;;;;16.90;9.50;;;;;;;-3.37;100.00;101641.58;109411;1253;60855;-55
2023/12/17 00:35:26;;;;;;;15.70;9.20;;;;;;;-3.33;100.00;101635.83;109414;1253;58784;-55
2023/12/17 00:37:54;;;;;;;14.20;8.20;;;;;;;-3.29;100.00;101634.66;109379;1253;73899;-55
2023/12/17 00:40:21;;;;;;;14.90;8.70;;;;;;;-3.26;100.00;101634.36;109440;1253;65754;-54
2023/12/17 00:42:49;;;;;;;16.10;9.60;;;;;;;-3.26;100.00;101629.77;109366;1254;72717;-55
2023/12/17 00:45:16;;;;;;;20.00;11.90;;;;;;;-3.28;100.00;101622.88;109369;1253;59693;-55
2023/12/17 00:47:44;;;;;;;18.40;11.50;;;;;;;-3.30;100.00;101622.09;109404;1253;60567;-55
2023/12/17 00:50:12;;;;;;;18.50;10.80;;;;;;;-3.28;100.00;101620.84;109440;1253;72570;-55
2023/12/17 00:52:39;;;;;;;19.00;10.20;;;;;;;-3.29;100.00;101613.23;109414;1252;65784;-55
2023/12/17 00:55:07;;;;;;;15.40;9.80;;;;;;;-3.30;100.00;101610.21;109418;1253;72688;-55
2023/12/17 00:57:35;;;;;;;16.60;10.10;;;;;;;-3.33;100.00;101608.27;109389;1253;59331;-55
2023/12/17 01:00:04;;;;;;;16.50;9.30;;;;;;;-3.34;100.00;101607.98;109423;1252;59185;-55
2023/12/17 01:02:31;;;;;;;16.00;8.70;;;;;;;-3.33;100.00;101607.09;109384;1253;72322;-55
2023/12/17 01:04:59;;;;;;;16.10;9.70;;;;;;;-3.31;100.00;101603.10;109410;1255;67350;-56
2023/12/17 01:07:26;;;;;;;16.30;9.70;;;;;;;-3.30;100.00;101600.85;109382;1252;72947;-58
2023/12/17 01:09:54;;;;;;;14.60;8.70;;;;;;;-3.26;100.00;101599.66;109388;1253;59296;-55
2023/12/17 01:12:22;;;;;;;15.10;8.70;;;;;;;-3.23;100.00;101606.54;109400;1252;60072;-56
2023/12/17 01:14:49;;;;;;;13.10;7.90;;;;;;;-3.23;100.00;101606.70;109424;1253;73361;-55
2023/12/17 01:17:17;;;;;;;14.30;8.60;;;;;;;-3.21;100.00;101600.66;109424;1253;65858;-55
2023/12/17 01:19:45;;;;;;;14.50;8.60;;;;;;;-3.19;100.00;101595.14;109348;1253;72746;-56
2023/12/17 01:22:13;;;;;;;15.80;9.10;;;;;;;-3.16;100.00;101594.72;109403;1252;59339;-55
2023/12/17 01:24:41;;;;;;;14.60;8.40;;;;;;;-3.15;100.00;101588.52;109410;1253;58783;-55
2023/12/17 01:27:08;;;;;;;15.70;9.10;;;;;;;-3.14;100.00;101582.02;109431;1253;72945;-55
2023/12/17 01:29:36;;;;;;;13.60;8.40;;;;;;;-3.09;100.00;101575.87;109359;1252;65663;-58
2023/12/17 01:32:04;;;;;;;16.00;9.70;;;;;;;-3.08;100.00;101580.27;109387;1253;72708;-55
2023/12/17 01:34:32;;;;;;;17.60;10.80;;;;;;;-3.11;100.00;101577.52;109446;1253;59705;-55
2023/12/17 01:36:59;;;;;;;20.30;12.20;;;;;;;-3.16;100.00;101581.97;109408;1253;60050;-55
2023/12/17 01:39:27;;;;;;;21.20;11.70;;;;;;;-3.15;100.00;101586.83;109363;1256;72957;-55
2023/12/17 01:41:55;;;;;;;17.10;10.20;;;;;;;-3.13;100.00;101589.30;109386;1253;65322;-55
2023/12/17 01:44:22;;;;;;;17.00;9.80;;;;;;;-3.11;100.00;101587.84;109430;1253;71215;-55
2023/12/17 01:46:50;;;;;;;14.10;8.60;;;;;;;-3.10;100.00;101588.52;109403;1253;59427;-55
2023/12/17 01:49:18;;;;;;;17.40;9.20;;;;;;;-3.09;100.00;101585.23;109402;1253;60079;-55
2023/12/17 01:51:45;;;;;;;14.00;8.40;;;;;;;-3.06;100.00;101585.46;109216;1252;72586;-58
2023/12/17 01:54:13;;;;;;;13.80;8.80;;;;;;;-3.05;100.00;101588.11;109206;1253;65687;-55
2023/12/17 01:56:41;;;;;;;16.70;10.30;;;;;;;-3.03;100.00;101584.83;109375;1253;72761;-55
2023/12/17 01:59:08;;;;;;;16.20;9.30;;;;;;;-3.02;100.00;101596.50;109438;1253;59354;-55
2023/12/17 02:01:36;;;;;;;16.40;9.80;;;;;;;-2.99;100.00;101602.87;109237;1253;60035;-55
2023/12/17 02:04:06;;;;;;;16.10;8.70;;;;;;;-2.96;100.00;101605.44;109400;1252;73280;-55
2023/12/17 02:06:34;;;;;;;14.20;8.90;;;;;;;-2.92;100.00;101604.94;109445;1253;67261;-55
2023/12/17 02:09:01;;;;;;;14.50;8.80;;;;;;;-2.90;100.00;101605.90;109415;1253;72752;-54
2023/12/17 02:11:29;;;;;;;17.00;9.20;;;;;;;-2.88;100.00;101601.03;109387;1253;60947;-55
2023/12/17 02:13:57;;;;;;;13.40;8.00;;;;;;;-2.88;100.00;101598.79;109383;1253;58622;-57
2023/12/17 02:16:24;;;;;;;14.80;8.20;;;;;;;-2.85;100.00;101596.30;109413;1253;72661;-54
2023/12/17 02:18:52;;;;;;;14.00;7.90;;;;;;;-2.82;100.00;101594.66;109380;1256;68978;-55
2023/12/17 02:21:20;;;;;;;18.80;9.50;;;;;;;-2.80;100.00;101598.66;109378;1253;72637;-54
2023/12/17 02:23:48;;;;;;;14.30;9.50;;;;;;;-2.78;100.00;101597.23;109429;1252;60005;-55
2023/12/17 02:26:17;;;;;;;14.60;9.40;;;;;;;-2.76;100.00;101606.84;109334;1254;59657;-54
2023/12/17 02:28:45;;;;;;;14.00;8.10;;;;;;;-2.75;100.00;101607.48;109396;1253;73910;-55
2023/12/17 02:31:13;;;;;;;14.00;7.90;;;;;;;-2.72;100.00;101602.42;109425;1253;66953;-55
2023/12/17 02:33:41;;;;;;;15.50;9.10;;;;;;;-2.72;100.00;101602.58;109352;1253;71447;-55
2023/12/17 02:36:09;;;;;;;16.20;10.20;;;;;;;-2.69;100.00;101602.45;109380;1253;61041;-54
2023/12/17 02:38:36;;;;;;;15.30;9.00;;;;;;;-2.68;100.00;101600.71;109350;1253;58830;-54
2023/12/17 02:41:04;;;;;;;18.10;10.60;;;;;;;-2.70;100.00;101604.35;109389;1253;73982;-55
2023/12/17 02:43:32;;;;;;;16.70;9.40;;;;;;;-2.69;100.00;101603.27;109400;1252;65773;-56
2023/12/17 02:45:59;;;;;;;15.40;9.00;;;;;;;-2.65;100.00;101606.72;109383;1253;71084;-54
2023/12/17 02:48:27;;;;;;;16.30;9.70;;;;;;;-2.63;100.00;101603.39;109418;1253;59341;-55
2023/12/17 02:50:55;;;;;;;14.60;9.10;;;;;;;-2.60;100.00;101608.89;109424;1252;60213;-56
2023/12/17 02:53:22;;;;;;;18.10;9.90;;;;;;;-2.58;100.00;101607.08;109431;1253;74067;-55
2023/12/17 02:55:50;;;;;;;15.80;10.60;;;;;;;-2.58;100.00;101601.13;109358;1253;65887;-55
2023/12/17 02:58:17;;;;;;;17.80;10.90;;;;;;;-2.57;100.00;101603.13;109421;1253;72676;-55
2023/12/17 03:00:45;;;;;;;17.50;10.20;;;;;;;-2.57;100.00;101602.46;109371;1253;58718;-55
2023/12/17 03:03:13;;;;;;;19.20;11.40;;;;;;;-2.55;100.00;101602.71;109413;1253;60231;-55
2023/12/17 03:05:40;;;;;;;18.20;10.20;;;;;;;-2.53;100.00;101601.42;109382;1256;73902;-55
2023/12/17 03:08:09;;;;;;;16.90;9.30;;;;;;;-2.50;100.00;101598.75;109424;1253;66952;-54
2023/12/17 03:10:42;;;;;;;17.50;11.10;;;;;;;-2.50;100.00;101600.77;109364;1253;71917;-55
2023/12/17 03:13:10;;;;;;;18.50;11.60;;;;;;;-2.48;100.00;101600.88;109360;1253;59843;-54
2023/12/17 03:15:37;;;;;;;26.70;16.60;;;;;;;-2.46;100.00;101599.44;109389;1253;60420;-55
2023/12/17 03:18:05;;;;;;;22.40;13.50;;;;;;;-2.44;100.00;101600.02;109404;1253;74432;-55
2023/12/17 03:20:33;;;;;;;17.90;11.40;;;;;;;-2.41;100.00;101600.56;109417;1254;67047;-55
2023/12/17 03:23:01;;;;;;;21.20;12.70;;;;;;;-2.38;100.00;101601.63;109412;1254;71810;-55
2023/12/17 03:25:28;;;;;;;17.00;10.80;;;;;;;-2.36;100.00;101600.52;109332;1253;59365;-55
2023/12/17 03:27:56;;;;;;;19.70;12.10;;;;;;;-2.32;100.00;101600.19;109338;1253;60127;-55
2023/12/17 03:30:23;;;;;;;18.90;11.70;;;;;;;-2.29;100.00;101603.42;109408;1253;73977;-55
2023/12/17 03:32:51;;;;;;;18.10;11.40;;;;;;;-2.25;100.00;101602.91;109378;1253;66943;-55
2023/12/17 03:35:19;;;;;;;18.20;11.30;;;;;;;-2.22;100.00;101599.89;109408;1253;72404;-54
2023/12/17 03:37:47;;;;;;;16.20;10.20;;;;;;;-2.18;100.00;101595.83;109358;1253;58525;-55
2023/12/17 03:40:14;;;;;;;17.50;10.60;;;;;;;-2.16;100.00;101597.44;109339;1254;58779;-55
2023/12/17 03:42:42;;;;;;;21.80;12.00;;;;;;;-2.14;100.00;101601.95;109396;1252;73920;-54
2023/12/17 03:45:10;;;;;;;18.00;11.10;;;;;;;-2.12;100.00;101599.63;109391;1253;65653;-54
2023/12/17 03:47:42;;;;;;;18.80;12.00;;;;;;;-2.08;100.00;101599.64;109361;1253;72477;-54
2023/12/17 03:50:10;;;;;;;19.30;12.50;;;;;;;-2.04;100.00;101595.89;109287;1257;60651;-54
2023/12/17 03:52:38;;;;;;;20.40;11.40;;;;;;;-2.01;100.00;101592.31;109406;1254;60121;-54
2023/12/17 03:55:06;;;;;;;17.80;11.40;;;;;;;-1.99;100.00;101592.40;109412;1253;73868;-54
2023/12/17 03:57:33;;;;;;;16.70;10.70;;;;;;;-1.95;100.00;101595.29;109205;1252;67079;-54
2023/12/17 04:00:03;;;;;;;17.60;10.70;;;;;;;-1.92;100.00;101594.85;109217;1254;72401;-54
2023/12/17 04:02:31;;;;;;;15.60;10.00;;;;;;;-1.92;100.00;101594.48;109323;1252;58882;-54
2023/12/17 04:05:01;;;;;;;16.10;10.50;;;;;;;-1.92;100.00;101599.73;109365;1254;60140;-54
2023/12/17 04:07:30;;;;;;;16.90;9.80;;;;;;;-1.91;100.00;101601.40;109344;1254;71901;-54
2023/12/17 04:09:57;;;;;;;14.80;8.70;;;;;;;-1.88;100.00;101602.63;109376;1253;66859;-54
2023/12/17 04:12:25;;;;;;;12.90;8.20;;;;;;;-1.87;100.00;101602.60;109354;1254;72716;-54
2023/12/17 04:14:53;;;;;;;12.30;7.80;;;;;;;-1.86;100.00;101595.06;109345;1253;59512;-54
2023/12/17 04:17:20;;;;;;;14.40;8.70;;;;;;;-1.86;100.00;101590.94;109384;1256;60091;-55
2023/12/17 04:19:48;;;;;;;15.00;9.00;;;;;;;-1.85;100.00;101587.17;109379;1252;73931;-54
2023/12/17 04:22:16;;;;;;;16.20;9.80;;;;;;;-1.84;100.00;101584.26;109405;1254;67138;-53
2023/12/17 04:24:43;;;;;;;12.60;8.10;;;;;;;-1.80;100.00;101584.73;109441;1254;72720;-55
2023/12/17 04:27:11;;;;;;;13.70;7.80;;;;;;;-1.77;100.00;101579.33;109383;1253;58099;-54
2023/12/17 04:29:39;;;;;;;11.90;7.60;;;;;;;-1.76;100.00;101588.93;109385;1252;60185;-57
2023/12/17 04:32:06;;;;;;;12.70;7.60;;;;;;;-1.74;100.00;101587.16;109382;1252;73932;-54
2023/12/17 04:34:34;;;;;;;12.20;7.40;;;;;;;-1.74;100.00;101585.46;109366;1254;67550;-54
2023/12/17 04:37:02;;;;;;;11.80;7.60;;;;;;;-1.74;100.00;101583.77;109367;1252;71438;-54
2023/12/17 04:39:29;;;;;;;11.70;6.40;;;;;;;-1.73;100.00;101580.65;109329;1253;61031;-55
2023/12/17 04:41:57;;;;;;;12.50;8.00;;;;;;;-1.72;100.00;101587.55;109419;1251;60166;-55
2023/12/17 04:44:24;;;;;;;10.60;6.50;;;;;;;-1.70;100.00;101591.77;109364;1254;72692;-55
2023/12/17 04:46:52;;;;;;;12.40;7.30;;;;;;;-1.67;100.00;101591.98;109381;1253;66408;-53
2023/12/17 04:49:19;;;;;;;12.50;7.20;;;;;;;-1.66;100.00;101589.05;109372;1253;72711;-54
2023/12/17 04:51:47;;;;;;;12.50;7.30;;;;;;;-1.65;100.00;101592.41;109340;1253;59697;-55
2023/12/17 04:54:15;;;;;;;11.70;7.40;;;;;;;-1.63;100.00;101588.90;109361;1253;59853;-54
2023/12/17 04:56:43;;;;;;;11.60;6.90;;;;;;;-1.62;100.00;101586.27;109388;1253;72547;-54
2023/12/17 04:59:10;;;;;;;10.60;6.30;;;;;;;-1.60;100.00;101588.25;109361;1254;66948;-54
2023/12/17 05:01:38;;;;;;;13.80;7.40;;;;;;;-1.60;100.00;101583.43;109364;1253;71553;-57
2023/12/17 05:04:06;;;;;;;14.20;8.20;;;;;;;-1.59;100.00;101581.36;109374;1252;59686;-54
2023/12/17 05:06:33;;;;;;;14.50;7.70;;;;;;;-1.57;100.00;101580.57;109348;1253;60085;-54
2023/12/17 05:09:01;;;;;;;13.50;7.40;;;;;;;-1.55;100.00;101576.92;109380;1252;73934;-55
2023/12/17 05:11:28;;;;;;;12.40;7.30;;;;;;;-1.55;100.00;101563.08;109381;1253;65630;-54
2023/12/17 05:13:56;;;;;;;12.30;7.80;;;;;;;-1.52;100.00;101563.63;109376;1253;71800;-54
2023/12/17 05:16:24;;;;;;;14.60;8.40;;;;;;;-1.52;100.00;101563.61;109398;1256;59299;-54
2023/12/17 05:18:51;;;;;;;14.60;8.20;;;;;;;-1.48;100.00;101562.77;109389;1253;60233;-54
2023/12/17 05:21:19;;;;;;;14.60;8.20;;;;;;;-1.48;100.00;101563.63;109298;1254;72627;-54
2023/12/17 05:23:48;;;;;;;13.10;7.20;;;;;;;-1.48;100.00;101562.41;109335;1254;66947;-55
2023/12/17 05:26:15;;;;;;;13.40;8.50;;;;;;;-1.44;100.00;101561.88;109316;1253;71738;-55
2023/12/17 05:28:43;;;;;;;14.90;8.40;;;;;;;-1.41;100.00;101560.90;109360;1252;58688;-54
2023/12/17 05:31:10;;;;;;;12.70;7.30;;;;;;;-1.43;100.00;101560.29;109327;1252;59117;-54
2023/12/17 05:33:38;;;;;;;16.00;9.30;;;;;;;-1.42;100.00;101560.23;109329;1252;73910;-56
2023/12/17 05:36:06;;;;;;;13.50;8.50;;;;;;;-1.40;100.00;101559.14;109402;1253;67657;-54
2023/12/17 05:38:34;;;;;;;14.70;8.10;;;;;;;-1.39;100.00;101559.13;109345;1253;71318;-55
2023/12/17 05:41:01;;;;;;;13.40;8.20;;;;;;;-1.39;100.00;101554.17;109328;1254;59278;-55
2023/12/17 05:43:29;;;;;;;13.70;8.20;;;;;;;-1.37;100.00;101556.80;109342;1252;60444;-58
2023/12/17 05:45:57;;;;;;;13.80;7.90;;;;;;;-1.36;100.00;101554.02;109324;1254;73848;-55
2023/12/17 05:48:25;;;;;;;15.50;8.70;;;;;;;-1.33;100.00;101554.86;109378;1253;67059;-55
2023/12/17 05:50:53;;;;;;;16.80;9.40;;;;;;;-1.34;100.00;101553.39;109374;1253;71314;-55
2023/12/17 05:53:21;;;;;;;16.10;8.40;;;;;;;-1.35;100.00;101545.09;109364;1252;58366;-54
2023/12/17 05:56:00;;;;;;;13.00;8.20;;;;;;;-1.36;100.00;101544.63;109334;1253;58903;-55
2023/12/17 05:58:27;;;;;;;15.20;8.40;;;;;;;-1.34;100.00;101540.77;109326;1252;73697;-56
2023/12/17 06:00:56;;;;;;;14.60;8.30;;;;;;;-1.29;100.00;101538.85;109395;1253;65561;-55
2023/12/17 06:03:24;;;;;;;16.00;9.10;;;;;;;-1.27;100.00;101543.66;109469;1252;72003;-55
2023/12/17 06:05:51;;;;;;;16.50;8.80;;;;;;;-1.25;100.00;101548.87;109305;1253;58350;-56
2023/12/17 06:08:19;;;;;;;15.00;8.70;;;;;;;-1.25;100.00;101548.33;109320;1254;60013;-55
2023/12/17 06:10:47;;;;;;;14.10;8.40;;;;;;;-1.22;100.00;101546.32;109389;1252;73927;-55
2023/12/17 06:13:14;;;;;;;14.60;9.10;;;;;;;-1.20;100.00;101544.02;109357;1253;66968;-55
2023/12/17 06:15:42;;;;;;;15.10;8.80;;;;;;;-1.15;100.00;101541.73;109304;1253;72547;-56
2023/12/17 06:18:10;;;;;;;15.50;8.80;;;;;;;-1.12;100.00;101536.80;109316;1254;58513;-55
2023/12/17 06:20:37;;;;;;;16.70;8.70;;;;;;;-1.09;100.00;101540.23;109384;1253;58596;-55
2023/12/17 06:23:05;;;;;;;17.10;8.70;;;;;;;-1.05;100.00;101539.17;109438;1254;73709;-56
2023/12/17 06:25:33;;;;;;;15.30;8.70;;;;;;;-1.04;100.00;101536.73;109313;1253;66998;-58
2023/12/17 06:28:01;;;;;;;15.70;8.40;;;;;;;-1.02;100.00;101537.15;109344;1254;71460;-56
2023/12/17 06:30:30;;;;;;;12.20;7.10;;;;;;;-0.99;100.00;101538.33;109367;1252;59747;-56
2023/12/17 06:32:58;;;;;;;14.70;8.60;;;;;;;-0.98;100.00;101538.48;109433;1251;59060;-56
2023/12/17 06:35:26;;;;;;;14.50;9.10;;;;;;;-0.96;100.00;101537.54;109398;1253;72934;-56
2023/12/17 06:37:54;;;;;;;16.50;9.00;;;;;;;-0.94;100.00;101542.86;109356;1252;67562;-55
2023/12/17 06:40:22;;;;;;;17.70;9.40;;;;;;;-0.91;100.00;101543.77;109307;1253;72666;-56
2023/12/17 06:42:49;;;;;;;17.80;10.10;;;;;;;-0.88;100.00;101540.16;109354;1253;59625;-55
2023/12/17 06:45:17;;;;;;;18.80;9.20;;;;;;;-0.84;100.00;101539.81;109371;1252;60096;-55
2023/12/17 06:47:45;;;;;;;18.40;10.20;;;;;;;-0.82;100.00;101543.67;109282;1252;72672;-57
2023/12/17 06:50:13;;;;;;;19.30;10.40;;;;;;;-0.79;100.00;101549.48;109367;1253;66556;-56
2023/12/17 06:52:41;;;;;;;19.70;11.00;;;;;;;-0.78;100.00;101547.52;109324;1253;72712;-55
2023/12/17 06:55:09;;;;;;;19.30;10.70;;;;;;;-0.76;100.00;101544.70;109292;1252;60945;-56
2023/12/17 06:57:36;;;;;;;19.20;11.10;;;;;;;-0.74;100.00;101537.41;109337;1253;59355;-58
2023/12/17 07:00:05;;;;;;;17.00;9.50;;;;;;;-0.69;100.00;101533.60;109320;1253;72540;-56
2023/12/17 07:02:34;;;;;;;21.90;12.10;;;;;;;-0.63;100.00;101537.41;109248;1254;69225;-56
2023/12/17 07:05:02;;;;;;;20.20;10.60;;;;;;;-0.61;100.00;101533.34;109332;1253;72784;-55
2023/12/17 07:07:30;;;;;;;24.90;11.80;;;;;;;-0.59;100.00;101534.10;109344;1253;60941;-56
2023/12/17 07:09:58;;;;;;;25.90;12.10;;;;;;;-0.56;100.00;101537.00;109308;1253;60236;-56
2023/12/17 07:12:25;;;;;;;20.90;12.50;;;;;;;-0.52;100.00;101533.07;109359;1252;73938;-56
2023/12/17 07:14:53;;;;;;;25.00;12.40;;;;;;;-0.49;100.00;101528.27;109368;1253;66943;-56
2023/12/17 07:17:21;;;;;;;27.00;14.40;;;;;;;-0.45;100.00;101524.99;109371;1252;71633;-56
2023/12/17 07:19:49;;;;;;;24.30;13.40;;;;;;;-0.42;100.00;101522.98;109329;1253;60959;-59
2023/12/17 07:22:22;;;;;;;26.00;13.80;;;;;;;-0.43;100.00;101520.47;109374;1253;58701;-57
2023/12/17 07:24:50;;;;;;;26.20;13.90;;;;;;;-0.42;100.00;101519.36;109364;1253;73948;-56
2023/12/17 07:27:17;;;;;;;28.50;15.00;;;;;;;-0.37;100.00;101520.65;109364;1253;67065;-57
2023/12/17 07:29:45;;;;;;;27.80;14.90;;;;;;;-0.34;100.00;101522.88;109281;1253;71865;-57
2023/12/17 07:32:13;;;;;;;27.90;15.60;;;;;;;-0.30;100.00;101514.30;109327;1254;58191;-56
2023/12/17 07:34:40;;;;;;;31.60;17.20;;;;;;;-0.27;100.00;101514.30;109361;1252;60065;-56
2023/12/17 07:37:08;;;;;;;27.70;14.70;;;;;;;-0.24;100.00;101513.45;109381;1252;73185;-56
2023/12/17 07:39:36;;;;;;;30.90;17.00;;;;;;;-0.19;100.00;101512.72;109299;1253;65769;-59
2023/12/17 07:42:04;;;;;;;29.50;16.00;;;;;;;-0.16;100.00;101515.24;109326;1253;71386;-56
2023/12/17 07:44:31;;;;;;;25.50;15.10;;;;;;;-0.12;100.00;101511.77;109335;1253;60963;-56
2023/12/17 07:46:59;;;;;;;29.60;16.60;;;;;;;-0.07;100.00;101512.15;109342;1254;60029;-56
2023/12/17 07:49:26;;;;;;;28.90;15.90;;;;;;;-0.01;100.00;101506.27;109227;1253;71954;-59
2023/12/17 07:51:54;;;;;;;31.90;17.10;;;;;;;0.03;100.00;101500.90;109147;1253;262966;-57
2023/12/17 07:54:22;;;;;;;29.20;14.80;;;;;;;0.10;100.00;101503.41;109356;1253;72371;-57
2023/12/17 07:56:49;;;;;;;28.90;16.30;;;;;;;0.15;100.00;101503.64;109286;1253;60915;-56
2023/12/17 07:59:17;;;;;;;30.20;15.80;;;;;;;0.21;100.00;101502.79;109360;1252;58853;-57
2023/12/17 08:01:44;;;;;;;32.20;16.90;;;;;;;0.29;100.00;101501.02;109303;1253;73911;-59
2023/12/17 08:04:13;;;;;;;33.00;16.60;;;;;;;0.33;100.00;101497.17;109392;1253;66315;-57
2023/12/17 08:06:41;;;;;;;33.10;17.50;;;;;;;0.40;100.00;101497.59;109348;1252;72689;-57
2023/12/17 08:09:08;;;;;;;31.10;16.90;;;;;;;0.47;100.00;101490.54;109311;1253;60947;-57
2023/12/17 08:11:36;;;;;;;31.50;16.40;;;;;;;0.52;100.00;101489.59;109229;1253;58954;-59
2023/12/17 08:14:04;;;;;;;32.00;17.60;;;;;;;0.55;100.00;101487.00;109303;1253;73185;-58
2023/12/17 08:16:31;;;;;;;30.90;18.10;;;;;;;0.56;100.00;101478.38;109325;1253;65359;-57
2023/12/17 08:18:59;;;;;;;37.40;18.50;;;;;;;0.60;100.00;101479.40;109318;1253;70420;-57
2023/12/17 08:21:27;;;;;;;37.00;19.50;;;;;;;0.59;100.00;101475.67;109335;1252;59580;-58
2023/12/17 08:23:55;;;;;;;29.50;16.00;;;;;;;0.59;100.00;101474.26;109251;1253;60027;-58
2023/12/17 08:26:22;;;;;;;34.60;19.10;;;;;;;0.62;100.00;101473.92;109333;1253;72438;-57
2023/12/17 08:28:50;;;;;;;33.00;17.10;;;;;;;0.69;100.00;101471.14;109326;1253;66315;-58
2023/12/17 08:31:18;;;;;;;33.60;18.40;;;;;;;0.72;100.00;101469.80;109341;1252;71798;-58
2023/12/17 08:33:51;;;;;;;28.30;16.00;;;;;;;0.75;100.00;101462.75;109269;1253;59966;-61
2023/12/17 08:36:19;;;;;;;33.00;18.00;;;;;;;0.81;100.00;101460.35;109303;1253;60278;-58
2023/12/17 08:38:48;;;;;;;33.20;17.50;;;;;;;0.86;100.00;101459.75;109361;1252;73932;-58
2023/12/17 08:41:15;;;;;;;32.50;17.80;;;;;;;0.90;100.00;101453.50;109344;1252;65845;-59
2023/12/17 08:43:43;;;;;;;34.10;18.10;;;;;;;0.94;100.00;101448.81;109311;1253;72733;-61
2023/12/17 08:46:11;;;;;;;30.70;16.80;;;;;;;0.99;100.00;101451.29;109300;1253;60925;-58
2023/12/17 08:48:39;;;;;;;31.20;16.40;;;;;;;1.03;100.00;101448.12;109371;1253;60115;-59
2023/12/17 08:51:06;;;;;;;29.50;16.60;;;;;;;1.05;100.00;101446.92;109340;1253;74256;-59
2023/12/17 08:53:34;;;;;;;28.90;16.50;;;;;;;1.08;100.00;101437.50;109432;1251;66113;-60
2023/12/17 08:56:03;;;;;;;30.00;15.90;;;;;;;1.13;100.00;101435.70;109431;1251;71954;-59
2023/12/17 08:58:31;;;;;;;34.70;17.70;;;;;;;1.15;100.00;101432.30;109286;1252;58207;-59
2023/12/17 09:00:58;;;;;;;29.40;15.70;;;;;;;1.17;100.00;101436.11;109365;1252;58825;-59
2023/12/17 09:03:26;;;;;;;30.40;17.50;;;;;;;1.20;100.00;101428.39;109308;1252;73883;-61
2023/12/17 09:05:54;;;;;;;31.20;16.70;;;;;;;1.20;100.00;101423.73;109279;1253;69046;-59
2023/12/17 09:08:21;;;;;;;28.50;15.70;;;;;;;1.20;100.00;101424.77;109310;1253;71755;-59
2023/12/17 09:10:49;;;;;;;27.80;16.10;;;;;;;1.23;100.00;101417.10;109283;1254;58161;-59
2023/12/17 09:13:17;;;;;;;27.90;16.00;;;;;;;1.23;100.00;101409.90;109471;1251;60533;-59
2023/12/17 09:15:44;;;;;;;28.90;16.20;;;;;;;1.26;100.00;101407.70;109285;1252;73943;-60
2023/12/17 09:18:13;;;;;;;27.20;15.80;;;;;;;1.29;100.00;101403.23;109403;1252;66067;-59
2023/12/17 09:20:40;;;;;;;28.50;16.00;;;;;;;1.30;100.00;101405.23;109349;1253;73202;-59
2023/12/17 09:23:08;;;;;;;28.30;16.60;;;;;;;1.31;100.00;101396.21;109355;1253;59662;-59
2023/12/17 09:25:36;;;;;;;28.10;15.80;;;;;;;1.32;100.00;101396.33;109320;1252;58731;-60
2023/12/17 09:28:04;;;;;;;28.30;15.40;;;;;;;1.35;100.00;101394.27;109328;1253;73641;-60
2023/12/17 09:30:32;;;;;;;27.50;15.30;;;;;;;1.33;100.00;101396.63;109349;1253;66082;-59
2023/12/17 09:33:00;;;;;;;25.70;14.90;;;;;;;1.35;100.00;101390.85;109294;1253;72670;-60
2023/12/17 09:35:27;;;;;;;25.80;14.80;;;;;;;1.38;100.00;101384.50;109308;1253;59578;-60
2023/12/17 09:37:55;;;;;;;26.60;15.40;;;;;;;1.41;100.00;101384.79;109287;1252;59778;-60
2023/12/17 09:40:23;;;;;;;26.70;14.20;;;;;;;1.45;100.00;101385.77;109336;1252;72675;-60
2023/12/17 09:42:52;;;;;;;24.40;14.90;;;;;;;1.48;100.00;101380.93;109339;1253;67153;-60
2023/12/17 09:45:20;;;;;;;26.50;15.30;;;;;;;1.51;100.00;101378.52;109326;1252;73105;-60
2023/12/17 09:47:48;;;;;;;24.20;15.20;;;;;;;1.54;100.00;101378.70;109268;1253;59408;-61
2023/12/17 09:50:15;;;;;;;22.80;14.20;;;;;;;1.56;100.00;101380.30;109315;1252;58723;-61
2023/12/17 09:52:43;;;;;;;23.00;13.40;;;;;;;1.56;100.00;101379.27;109314;1252;72672;-60
2023/12/17 09:55:11;;;;;;;22.00;12.60;;;;;;;1.56;100.00;101380.62;109369;1253;65779;-60
2023/12/17 09:57:38;;;;;;;21.40;12.60;;;;;;;1.59;100.00;101378.52;109307;1253;72727;-61
2023/12/17 10:00:11;;;;;;;21.70;13.00;;;;;;;1.60;100.00;101381.22;109307;1253;60103;-60
2023/12/17 10:02:39;;;;;;;25.00;13.30;;;;;;;1.59;100.00;101379.55;109338;1252;59106;-60
2023/12/17 10:05:07;;;;;;;21.10;12.40;;;;;;;1.64;100.00;101378.59;109380;1253;73969;-60
2023/12/17 10:07:36;;;;;;;20.50;12.40;;;;;;;1.64;100.00;101371.84;109358;1252;66227;-60
2023/12/17 10:10:06;;;;;;;22.50;12.50;;;;;;;1.68;100.00;101366.27;109312;1253;72658;-60
2023/12/17 10:12:35;;;;;;;20.30;12.20;;;;;;;1.71;100.00;101360.97;109298;1253;58696;-60
2023/12/17 10:15:03;;;;;;;18.50;11.50;;;;;;;1.73;100.00;101355.92;109311;1253;60093;-60
2023/12/17 10:17:31;;;;;;;21.80;12.40;;;;;;;1.70;100.00;101354.18;109354;1253;73051;-60
2023/12/17 10:19:58;;;;;;;21.00;13.00;;;;;;;1.71;100.00;101354.63;109338;1253;67470;-60
2023/12/17 10:22:26;;;;;;;19.80;11.60;;;;;;;1.73;100.00;101353.52;109416;1253;71430;-59
2023/12/17 10:24:54;;;;;;;19.40;11.90;;;;;;;1.71;100.00;101348.15;109298;1252;58149;-60
2023/12/17 10:27:22;;;;;;;20.80;11.70;;;;;;;1.69;100.00;101348.77;109371;1252;58882;-60
2023/12/17 10:29:50;;;;;;;22.70;12.50;;;;;;;1.69;100.00;101343.31;109307;1253;73821;-60
2023/12/17 10:32:23;;;;;;;20.20;12.10;;;;;;;1.71;100.00;101341.82;109316;1252;67000;-60
2023/12/17 10:34:51;;;;;;;18.00;11.30;;;;;;;1.72;100.00;101339.16;109322;1252;71414;-60
2023/12/17 10:37:21;;;;;;;18.50;11.90;;;;;;;1.75;100.00;101333.32;109286;1252;63114;-60
2023/12/17 10:39:49;;;;;;;17.60;10.70;;;;;;;1.76;100.00;101331.36;109353;1252;59134;-59
2023/12/17 10:42:17;;;;;;;19.20;10.60;;;;;;;1.76;100.00;101321.58;109359;1253;73929;-59
2023/12/17 10:44:49;;;;;;;18.20;10.90;;;;;;;1.74;100.00;101319.16;109367;1253;66201;-59
2023/12/17 10:47:20;;;;;;;16.00;9.80;;;;;;;1.75;100.00;101317.23;109221;1253;71426;-61
2023/12/17 10:49:48;;;;;;;16.00;9.60;;;;;;;1.76;100.00;101317.30;109269;1253;61670;-59
2023/12/17 10:52:16;;;;;;;17.20;10.10;;;;;;;1.79;100.00;101318.83;109359;1253;60023;-59
2023/12/17 10:54:43;;;;;;;16.30;10.00;;;;;;;1.75;100.00;101318.26;109337;1252;72641;-59
2023/12/17 10:57:12;;;;;;;17.30;10.00;;;;;;;1.73;100.00;101310.29;109330;1253;67086;-59
2023/12/17 10:59:40;;;;;;;16.80;9.90;;;;;;;1.74;100.00;101309.20;109184;1253;73170;-59
2023/12/17 11:02:08;;;;;;;16.90;10.10;;;;;;;1.76;100.00;101307.52;109284;1253;58451;-59